createdAt,value
2016-03-24T00:00:43.172Z,17.48
2016-03-24T00:01:43.238Z,17.49
2016-03-24T00:02:43.286Z,17.45
2016-03-24T00:03:43.352Z,17.54
2016-03-24T00:04:43.371Z,17.46
2016-03-24T00:05:43.452Z,17.49
2016-03-24T00:06:43.501Z,17.46
2016-03-24T00:07:43.535Z,17.51
2016-03-24T00:08:43.584Z,17.44
2016-03-24T00:09:43.681Z,17.49
2016-03-24T00:10:43.715Z,17.45
2016-03-24T00:11:43.733Z,17.49
2016-03-24T00:12:43.829Z,17.49
2016-03-24T00:13:43.848Z,17.48
2016-03-24T00:14:43.898Z,17.46
2016-03-24T00:15:43.963Z,17.49
2016-03-24T00:16:43.996Z,17.46
2016-03-24T00:17:44.062Z,17.42
2016-03-24T00:18:44.112Z,17.49
2016-03-24T00:19:44.161Z,17.51
2016-03-24T00:20:44.210Z,17.46
2016-03-24T00:21:44.291Z,17.45
2016-03-24T00:22:44.295Z,17.52
2016-03-24T00:23:44.359Z,17.46
2016-03-24T00:24:44.409Z,17.41
2016-03-24T00:25:44.442Z,17.46
2016-03-24T00:26:44.508Z,17.45
2016-03-24T00:27:44.542Z,17.57
2016-03-24T00:28:44.639Z,17.46
2016-03-24T00:29:44.688Z,17.52
2016-03-24T00:30:44.691Z,17.51
2016-03-24T00:31:44.772Z,17.42
2016-03-24T00:32:44.837Z,17.46
2016-03-24T00:33:44.855Z,17.51
2016-03-24T00:34:44.919Z,17.44
2016-03-24T00:35:45.016Z,17.38
2016-03-24T00:36:45.019Z,17.45
2016-03-24T00:37:45.069Z,17.46
2016-03-24T00:38:45.133Z,17.44
2016-03-24T00:39:45.152Z,17.41
2016-03-24T00:40:45.232Z,17.44
2016-03-24T00:41:45.267Z,17.45
2016-03-24T00:42:45.301Z,17.44
2016-03-24T00:43:45.382Z,17.54
2016-03-24T00:44:45.415Z,17.46
2016-03-24T00:45:45.466Z,17.45
2016-03-24T00:46:45.546Z,17.46
2016-03-24T00:47:45.596Z,17.51
2016-03-24T00:48:45.614Z,17.46
2016-03-24T00:49:45.695Z,17.39
2016-03-24T00:50:45.760Z,17.39
2016-03-24T00:51:45.793Z,17.44
2016-03-24T00:52:45.859Z,17.48
2016-03-24T00:53:45.892Z,17.39
2016-03-24T00:54:45.958Z,17.39
2016-03-24T00:55:46.023Z,17.45
2016-03-24T00:56:46.026Z,17.41
2016-03-24T00:57:46.106Z,17.54
2016-03-24T00:58:46.156Z,17.41
2016-03-24T00:59:46.175Z,17.48
2016-03-24T01:00:46.255Z,17.44
2016-03-24T01:01:46.305Z,17.41
2016-03-24T01:02:46.322Z,17.46
2016-03-24T01:03:46.389Z,17.39
2016-03-24T01:04:46.453Z,17.44
2016-03-24T01:05:46.488Z,17.44
2016-03-24T01:06:46.537Z,17.39
2016-03-24T01:07:46.586Z,17.45
2016-03-24T01:08:46.667Z,17.41
2016-03-24T01:09:46.702Z,17.45
2016-03-24T01:10:46.751Z,17.49
2016-03-24T01:11:46.816Z,17.33
2016-03-24T01:12:46.866Z,17.45
2016-03-24T01:13:46.885Z,17.48
2016-03-24T01:14:46.949Z,17.45
2016-03-24T01:15:47.030Z,17.41
2016-03-24T01:16:47.048Z,17.46
2016-03-24T01:17:47.082Z,17.34
2016-03-24T01:18:47.147Z,17.51
2016-03-24T01:19:47.212Z,17.38
2016-03-24T01:20:47.246Z,17.38
2016-03-24T01:21:47.327Z,17.41
2016-03-24T01:22:47.376Z,17.42
2016-03-24T01:23:47.426Z,17.48
2016-03-24T01:24:47.476Z,17.46
2016-03-24T01:25:47.525Z,17.54
2016-03-24T01:26:47.560Z,17.46
2016-03-24T01:27:47.594Z,17.46
2016-03-24T01:28:47.675Z,17.45
2016-03-24T01:29:47.692Z,17.39
2016-03-24T01:30:47.742Z,17.44
2016-03-24T01:31:47.822Z,17.44
2016-03-24T01:32:47.123Z,17.38
2016-03-24T01:33:47.938Z,17.38
2016-03-24T01:34:47.206Z,17.48
2016-03-24T01:35:48.021Z,17.36
2016-03-24T01:36:48.102Z,17.51
2016-03-24T01:37:48.121Z,17.36
2016-03-24T01:38:48.186Z,17.33
2016-03-24T01:39:48.251Z,17.48
2016-03-24T01:40:48.269Z,17.42
2016-03-24T01:41:48.319Z,17.46
2016-03-24T01:42:48.415Z,17.42
2016-03-24T01:43:48.433Z,17.42
2016-03-24T01:44:48.498Z,17.42
2016-03-24T01:45:48.517Z,17.48
2016-03-24T01:46:48.582Z,17.45
2016-03-24T01:47:48.648Z,17.44
2016-03-24T01:48:48.665Z,17.48
2016-03-24T01:49:48.715Z,17.44
2016-03-24T01:50:48.795Z,17.45
2016-03-24T01:51:48.830Z,17.46
2016-03-24T01:52:48.864Z,17.41
2016-03-24T01:53:48.960Z,17.42
2016-03-24T01:54:48.979Z,17.44
2016-03-24T01:55:49.029Z,17.39
2016-03-24T01:56:49.109Z,17.36
2016-03-24T01:57:49.128Z,17.38
2016-03-24T01:58:49.223Z,17.41
2016-03-24T01:59:49.242Z,17.41
2016-03-24T02:00:49.276Z,17.44
2016-03-24T02:01:49.356Z,17.36
2016-03-24T02:02:49.422Z,17.45
2016-03-24T02:03:49.424Z,17.42
2016-03-24T02:04:49.505Z,17.45
2016-03-24T02:05:49.571Z,17.41
2016-03-24T02:06:49.574Z,17.45
2016-03-24T02:07:49.638Z,17.44
2016-03-24T02:08:49.704Z,17.42
2016-03-24T02:09:49.738Z,17.42
2016-03-24T02:10:49.803Z,17.49
2016-03-24T02:11:49.837Z,17.48
2016-03-24T02:12:49.918Z,17.39
2016-03-24T02:13:49.967Z,17.39
2016-03-24T02:14:49.986Z,17.49
2016-03-24T02:15:50.051Z,17.39
2016-03-24T02:16:50.115Z,17.42
2016-03-24T02:17:50.134Z,17.42
2016-03-24T02:18:50.215Z,17.44
2016-03-24T02:19:50.265Z,17.44
2016-03-24T02:20:50.299Z,17.41
2016-03-24T02:21:50.348Z,17.42
2016-03-24T02:22:50.398Z,17.48
2016-03-24T02:23:50.479Z,17.46
2016-03-24T02:24:50.513Z,17.44
2016-03-24T02:25:50.531Z,17.45
2016-03-24T02:26:50.612Z,17.42
2016-03-24T02:27:50.661Z,17.44
2016-03-24T02:28:50.695Z,17.42
2016-03-24T02:29:50.776Z,17.44
2016-03-24T02:30:50.825Z,17.39
2016-03-24T02:31:50.859Z,17.46
2016-03-24T02:32:50.908Z,17.42
2016-03-24T02:33:50.224Z,17.39
2016-03-24T02:34:51.039Z,17.44
2016-03-24T02:35:51.058Z,17.41
2016-03-24T02:36:51.091Z,17.45
2016-03-24T02:37:51.157Z,17.48
2016-03-24T02:38:51.238Z,17.46
2016-03-24T02:39:51.272Z,17.39
2016-03-24T02:40:51.306Z,17.36
2016-03-24T02:41:51.386Z,17.42
2016-03-24T02:42:51.452Z,17.36
2016-03-24T02:43:51.455Z,17.38
2016-03-24T02:44:51.551Z,17.36
2016-03-24T02:45:51.585Z,17.39
2016-03-24T02:46:51.602Z,17.45
2016-03-24T02:47:51.668Z,17.38
2016-03-24T02:48:51.702Z,17.38
2016-03-24T02:49:51.815Z,17.38
2016-03-24T02:50:51.848Z,17.36
2016-03-24T02:51:51.882Z,17.39
2016-03-24T02:52:51.948Z,17.34
2016-03-24T02:53:51.982Z,17.39
2016-03-24T02:54:52.031Z,17.38
2016-03-24T02:55:52.096Z,17.39
2016-03-24T02:56:52.161Z,17.31
2016-03-24T02:57:52.164Z,17.34
2016-03-24T02:58:52.245Z,17.36
2016-03-24T02:59:52.294Z,17.38
2016-03-24T03:00:52.312Z,17.39
2016-03-24T03:01:52.361Z,17.42
2016-03-24T03:02:52.442Z,17.38
2016-03-24T03:03:52.492Z,17.38
2016-03-24T03:04:52.526Z,17.39
2016-03-24T03:05:52.607Z,17.38
2016-03-24T03:06:52.673Z,17.34
2016-03-24T03:07:52.675Z,17.39
2016-03-24T03:08:52.772Z,17.36
2016-03-24T03:09:52.805Z,17.31
2016-03-24T03:10:52.824Z,17.36
2016-03-24T03:11:52.888Z,17.33
2016-03-24T03:12:52.955Z,17.39
2016-03-24T03:13:52.972Z,17.38
2016-03-24T03:14:53.038Z,17.38
2016-03-24T03:15:53.055Z,17.36
2016-03-24T03:16:53.168Z,17.3
2016-03-24T03:17:53.217Z,17.34
2016-03-24T03:18:53.236Z,17.36
2016-03-24T03:19:53.316Z,17.38
2016-03-24T03:20:53.398Z,17.33
2016-03-24T03:21:53.401Z,17.36
2016-03-24T03:22:53.450Z,17.36
2016-03-24T03:23:53.515Z,17.34
2016-03-24T03:24:53.549Z,17.33
2016-03-24T03:25:53.598Z,17.29
2016-03-24T03:26:53.679Z,17.36
2016-03-24T03:27:53.713Z,17.34
2016-03-24T03:28:53.779Z,17.31
2016-03-24T03:29:53.781Z,17.36
2016-03-24T03:30:53.846Z,17.31
2016-03-24T03:31:53.911Z,17.3
2016-03-24T03:32:53.945Z,17.34
2016-03-24T03:33:53.995Z,17.31
2016-03-24T03:34:54.092Z,17.34
2016-03-24T03:35:54.110Z,17.41
2016-03-24T03:36:54.144Z,17.36
2016-03-24T03:37:54.240Z,17.27
2016-03-24T03:38:54.258Z,17.34
2016-03-24T03:39:54.324Z,17.29
2016-03-24T03:40:54.357Z,17.33
2016-03-24T03:41:54.392Z,17.36
2016-03-24T03:42:54.503Z,17.36
2016-03-24T03:43:54.522Z,17.34
2016-03-24T03:44:54.555Z,17.33
2016-03-24T03:45:54.621Z,17.34
2016-03-24T03:46:54.670Z,17.31
2016-03-24T03:47:54.704Z,17.27
2016-03-24T03:48:54.816Z,17.3
2016-03-24T03:49:54.835Z,17.27
2016-03-24T03:50:54.853Z,17.26
2016-03-24T03:51:54.919Z,17.31
2016-03-24T03:52:54.952Z,17.3
2016-03-24T03:53:55.033Z,17.3
2016-03-24T03:54:55.082Z,17.29
2016-03-24T03:55:55.132Z,17.31
2016-03-24T03:56:55.197Z,17.3
2016-03-24T03:57:55.232Z,17.31
2016-03-24T03:58:55.265Z,17.29
2016-03-24T03:59:55.346Z,17.26
2016-03-24T04:00:55.380Z,17.26
2016-03-24T04:01:55.414Z,17.26
2016-03-24T04:02:55.495Z,17.29
2016-03-24T04:03:55.779Z,17.23
2016-03-24T04:04:55.562Z,17.3
2016-03-24T04:05:55.644Z,17.29
2016-03-24T04:06:55.667Z,17.34
2016-03-24T04:07:55.732Z,17.26
2016-03-24T04:08:55.797Z,17.29
2016-03-24T04:09:55.815Z,17.29
2016-03-24T04:10:55.865Z,17.26
2016-03-24T04:11:55.945Z,17.26
2016-03-24T04:12:55.980Z,17.3
2016-03-24T04:13:56.029Z,17.27
2016-03-24T04:14:56.094Z,17.31
2016-03-24T04:15:56.128Z,17.26
2016-03-24T04:16:56.178Z,17.26
2016-03-24T04:17:56.243Z,17.27
2016-03-24T04:18:56.324Z,17.24
2016-03-24T04:19:56.357Z,17.24
2016-03-24T04:20:56.376Z,17.34
2016-03-24T04:21:56.426Z,17.26
2016-03-24T04:22:56.507Z,17.27
2016-03-24T04:23:56.540Z,17.26
2016-03-24T04:24:56.590Z,17.29
2016-03-24T04:25:56.656Z,17.27
2016-03-24T04:26:56.704Z,17.27
2016-03-24T04:27:56.723Z,17.27
2016-03-24T04:28:56.804Z,17.26
2016-03-24T04:29:56.853Z,17.3
2016-03-24T04:30:56.887Z,17.3
2016-03-24T04:31:56.937Z,17.23
2016-03-24T04:32:56.970Z,17.29
2016-03-24T04:33:56.927Z,17.29
2016-03-24T04:34:57.085Z,17.27
2016-03-24T04:35:57.135Z,17.24
2016-03-24T04:36:57.216Z,17.24
2016-03-24T04:37:57.266Z,17.27
2016-03-24T04:38:57.299Z,17.29
2016-03-24T04:39:57.364Z,17.26
2016-03-24T04:40:57.413Z,17.26
2016-03-24T04:41:57.432Z,17.26
2016-03-24T04:42:57.513Z,17.27
2016-03-24T04:43:57.563Z,17.26
2016-03-24T04:44:57.456Z,17.26
2016-03-24T04:45:57.693Z,17.23
2016-03-24T04:46:57.727Z,17.26
2016-03-24T04:47:57.777Z,17.24
2016-03-24T04:48:57.795Z,17.26
2016-03-24T04:49:57.876Z,17.19
2016-03-24T04:50:57.925Z,17.27
2016-03-24T04:51:57.960Z,17.27
2016-03-24T04:52:58.024Z,17.23
2016-03-24T04:53:58.074Z,17.24
2016-03-24T04:54:58.092Z,17.27
2016-03-24T04:55:58.157Z,17.23
2016-03-24T04:56:58.191Z,17.27
2016-03-24T04:57:58.273Z,17.23
2016-03-24T04:58:58.322Z,17.31
2016-03-24T04:59:58.356Z,17.27
2016-03-24T05:00:58.436Z,17.27
2016-03-24T05:01:58.487Z,17.26
2016-03-24T05:02:58.520Z,17.24
2016-03-24T05:03:58.586Z,17.29
2016-03-24T05:04:58.635Z,17.24
2016-03-24T05:05:58.653Z,17.3
2016-03-24T05:06:58.718Z,17.27
2016-03-24T05:07:58.784Z,17.3
2016-03-24T05:08:58.802Z,17.29
2016-03-24T05:09:58.883Z,17.27
2016-03-24T05:10:58.916Z,17.33
2016-03-24T05:11:58.982Z,17.27
2016-03-24T05:12:59.141Z,17.3
2016-03-24T05:13:59.049Z,17.34
2016-03-24T05:14:59.099Z,17.33
2016-03-24T05:15:59.180Z,17.33
2016-03-24T05:16:59.214Z,17.29
2016-03-24T05:17:59.248Z,17.34
2016-03-24T05:18:59.329Z,17.31
2016-03-24T05:19:59.363Z,17.36
2016-03-24T05:20:59.412Z,17.39
2016-03-24T05:21:59.493Z,17.38
2016-03-24T05:22:59.512Z,17.38
2016-03-24T05:23:59.592Z,17.34
2016-03-24T05:24:59.610Z,17.39
2016-03-24T05:25:59.659Z,17.31
2016-03-24T05:26:59.740Z,17.38
2016-03-24T05:27:59.775Z,17.38
2016-03-24T05:28:59.825Z,17.34
2016-03-24T05:29:59.905Z,17.31
2016-03-24T05:30:59.955Z,17.34
2016-03-24T05:31:59.973Z,17.31
2016-03-24T05:33:00.054Z,17.36
2016-03-24T05:34:00.103Z,17.31
2016-03-24T05:35:00.137Z,17.38
2016-03-24T05:36:00.171Z,17.31
2016-03-24T05:37:00.222Z,17.34
2016-03-24T05:38:00.302Z,17.39
2016-03-24T05:39:00.336Z,17.29
2016-03-24T05:40:00.369Z,17.36
2016-03-24T05:41:00.450Z,17.33
2016-03-24T05:42:00.499Z,17.34
2016-03-24T05:43:00.534Z,17.33
2016-03-24T05:44:00.599Z,17.36
2016-03-24T05:45:00.664Z,17.31
2016-03-24T05:46:00.683Z,17.33
2016-03-24T05:47:00.733Z,17.3
2016-03-24T05:48:00.797Z,17.27
2016-03-24T05:49:00.863Z,17.31
2016-03-24T05:50:00.896Z,17.3
2016-03-24T05:51:00.930Z,17.3
2016-03-24T05:52:00.996Z,17.3
2016-03-24T05:53:01.061Z,17.33
2016-03-24T05:54:01.079Z,17.27
2016-03-24T05:55:01.129Z,17.31
2016-03-24T05:56:01.225Z,17.3
2016-03-24T05:57:01.228Z,17.3
2016-03-24T05:58:01.293Z,17.3
2016-03-24T05:59:01.374Z,17.29
2016-03-24T06:00:01.392Z,17.33
2016-03-24T06:01:01.473Z,17.36
2016-03-24T06:02:01.492Z,17.31
2016-03-24T06:03:01.556Z,17.34
2016-03-24T06:04:01.622Z,17.33
2016-03-24T06:05:01.639Z,17.29
2016-03-24T06:06:01.689Z,17.36
2016-03-24T06:07:01.770Z,17.33
2016-03-24T06:08:01.805Z,17.33
2016-03-24T06:09:01.839Z,17.31
2016-03-24T06:10:01.919Z,17.33
2016-03-24T06:11:01.952Z,17.33
2016-03-24T06:12:02.002Z,17.36
2016-03-24T06:13:02.068Z,17.39
2016-03-24T06:14:02.102Z,17.39
2016-03-24T06:15:02.166Z,17.34
2016-03-24T06:16:02.216Z,17.38
2016-03-24T06:17:02.266Z,17.31
2016-03-24T06:18:02.332Z,17.3
2016-03-24T06:19:02.365Z,17.27
2016-03-24T06:20:02.399Z,17.38
2016-03-24T06:21:02.479Z,17.29
2016-03-24T06:22:02.529Z,17.29
2016-03-24T06:23:02.563Z,17.34
2016-03-24T06:24:02.629Z,17.31
2016-03-24T06:25:02.678Z,17.31
2016-03-24T06:26:02.712Z,17.33
2016-03-24T06:27:02.761Z,17.29
2016-03-24T06:28:02.827Z,17.3
2016-03-24T06:29:02.876Z,17.27
2016-03-24T06:30:02.926Z,17.27
2016-03-24T06:31:03.006Z,17.26
2016-03-24T06:32:03.026Z,17.29
2016-03-24T06:33:03.075Z,17.27
2016-03-24T06:34:03.171Z,17.29
2016-03-24T06:35:03.189Z,17.26
2016-03-24T06:36:03.239Z,17.33
2016-03-24T06:37:03.320Z,17.23
2016-03-24T06:38:03.354Z,17.3
2016-03-24T06:39:03.372Z,17.26
2016-03-24T06:40:03.437Z,17.33
2016-03-24T06:41:03.471Z,17.26
2016-03-24T06:42:03.552Z,17.22
2016-03-24T06:43:03.586Z,17.31
2016-03-24T06:44:03.636Z,17.24
2016-03-24T06:45:03.700Z,17.31
2016-03-24T06:46:03.750Z,17.29
2016-03-24T06:47:03.800Z,17.23
2016-03-24T06:48:03.850Z,17.27
2016-03-24T06:49:03.915Z,17.27
2016-03-24T06:50:03.932Z,17.26
2016-03-24T06:51:03.982Z,17.26
2016-03-24T06:52:04.032Z,17.24
2016-03-24T06:53:04.097Z,17.27
2016-03-24T06:54:04.146Z,17.24
2016-03-24T06:55:04.165Z,17.24
2016-03-24T06:56:04.245Z,17.23
2016-03-24T06:57:04.312Z,17.26
2016-03-24T06:58:04.329Z,17.23
2016-03-24T06:59:04.379Z,17.23
2016-03-24T07:00:04.444Z,17.24
2016-03-24T07:01:04.479Z,17.24
2016-03-24T07:02:04.543Z,17.26
2016-03-24T07:03:04.624Z,17.23
2016-03-24T07:04:04.642Z,17.24
2016-03-24T07:05:04.692Z,17.31
2016-03-24T07:06:04.726Z,17.26
2016-03-24T07:07:04.792Z,17.24
2016-03-24T07:08:04.122Z,17.26
2016-03-24T07:09:04.890Z,17.23
2016-03-24T07:10:04.940Z,17.22
2016-03-24T07:11:05.006Z,17.29
2016-03-24T07:12:05.055Z,17.29
2016-03-24T07:13:05.088Z,17.29
2016-03-24T07:14:05.169Z,17.16
2016-03-24T07:15:05.219Z,17.24
2016-03-24T07:16:05.238Z,17.24
2016-03-24T07:17:05.318Z,17.2
2016-03-24T07:18:05.352Z,17.23
2016-03-24T07:19:05.416Z,17.31
2016-03-24T07:20:05.452Z,17.22
2016-03-24T07:21:05.501Z,17.15
2016-03-24T07:22:05.581Z,17.24
2016-03-24T07:23:05.632Z,17.19
2016-03-24T07:24:05.649Z,17.29
2016-03-24T07:25:05.715Z,17.29
2016-03-24T07:26:05.765Z,17.22
2016-03-24T07:27:05.798Z,17.3
2016-03-24T07:28:05.863Z,17.29
2016-03-24T07:29:05.913Z,17.29
2016-03-24T07:30:05.963Z,17.23
2016-03-24T07:31:06.059Z,17.26
2016-03-24T07:32:06.061Z,17.15
2016-03-24T07:33:06.143Z,17.27
2016-03-24T07:34:06.176Z,17.23
2016-03-24T07:35:06.226Z,17.22
2016-03-24T07:36:06.276Z,17.27
2016-03-24T07:37:06.340Z,17.29
2016-03-24T07:38:06.359Z,17.24
2016-03-24T07:39:06.439Z,17.2
2016-03-24T07:40:06.489Z,17.23
2016-03-24T07:41:06.523Z,17.22
2016-03-24T07:42:06.572Z,17.27
2016-03-24T07:43:06.653Z,17.27
2016-03-24T07:44:06.688Z,17.27
2016-03-24T07:45:06.753Z,17.23
2016-03-24T07:46:06.771Z,17.24
2016-03-24T07:47:06.821Z,17.2
2016-03-24T07:48:06.901Z,17.2
2016-03-24T07:49:06.920Z,17.27
2016-03-24T07:50:06.969Z,17.24
2016-03-24T07:51:07.034Z,17.24
2016-03-24T07:52:07.100Z,17.29
2016-03-24T07:53:07.149Z,17.2
2016-03-24T07:54:07.183Z,17.19
2016-03-24T07:55:07.264Z,17.27
2016-03-24T07:56:07.298Z,17.22
2016-03-24T07:57:07.332Z,17.16
2016-03-24T07:58:07.382Z,17.27
2016-03-24T07:59:07.479Z,17.2
2016-03-24T08:00:07.481Z,17.22
2016-03-24T08:01:07.529Z,17.24
2016-03-24T08:02:07.627Z,17.19
2016-03-24T08:03:07.660Z,17.2
2016-03-24T08:04:07.695Z,17.14
2016-03-24T08:05:07.776Z,17.16
2016-03-24T08:06:07.809Z,17.14
2016-03-24T08:07:07.846Z,17.22
2016-03-24T08:08:08.434Z,17.14
2016-03-24T08:09:07.967Z,17.2
2016-03-24T08:10:07.986Z,17.19
2016-03-24T08:11:08.052Z,17.16
2016-03-24T08:12:08.116Z,17.19
2016-03-24T08:13:08.135Z,17.24
2016-03-24T08:14:08.184Z,17.19
2016-03-24T08:15:08.265Z,17.16
2016-03-24T08:16:08.299Z,17.22
2016-03-24T08:17:08.333Z,17.19
2016-03-24T08:18:08.413Z,17.15
2016-03-24T08:19:08.448Z,17.14
2016-03-24T08:20:08.482Z,17.14
2016-03-24T08:21:08.563Z,17.15
2016-03-24T08:22:08.596Z,17.2
2016-03-24T08:23:08.661Z,17.15
2016-03-24T08:24:08.712Z,17.22
2016-03-24T08:25:08.745Z,17.16
2016-03-24T08:26:08.810Z,17.19
2016-03-24T08:27:08.876Z,17.14
2016-03-24T08:28:08.893Z,17.19
2016-03-24T08:29:08.975Z,17.26
2016-03-24T08:30:09.024Z,17.15
2016-03-24T08:31:09.042Z,17.16
2016-03-24T08:32:09.123Z,17.24
2016-03-24T08:33:09.173Z,17.15
2016-03-24T08:34:09.206Z,17.16
2016-03-24T08:35:09.245Z,17.24
2016-03-24T08:36:09.263Z,17.12
2016-03-24T08:37:09.328Z,17.14
2016-03-24T08:38:09.362Z,17.14
2016-03-24T08:39:09.364Z,17.16
2016-03-24T08:40:09.436Z,17.12
2016-03-24T08:41:09.497Z,17.26
2016-03-24T08:42:09.508Z,17.15
2016-03-24T08:43:09.569Z,17.2
2016-03-24T08:44:09.627Z,17.14
2016-03-24T08:45:09.659Z,17.19
2016-03-24T08:46:09.705Z,17.22
2016-03-24T08:47:09.769Z,17.19
2016-03-24T08:48:09.818Z,17.12
2016-03-24T08:49:09.880Z,17.2
2016-03-24T08:50:09.882Z,17.14
2016-03-24T08:51:09.930Z,17.2
2016-03-24T08:52:10.027Z,17.19
2016-03-24T08:53:11.919Z,17.27
2016-03-24T08:54:10.093Z,17.15
2016-03-24T08:55:10.189Z,17.2
2016-03-24T08:56:10.207Z,17.22
2016-03-24T08:57:10.257Z,17.22
2016-03-24T08:58:10.320Z,17.16
2016-03-24T08:59:10.417Z,17.2
2016-03-24T09:00:10.388Z,17.19
2016-03-24T09:01:10.469Z,17.22
2016-03-24T09:02:10.519Z,17.22
2016-03-24T09:03:10.537Z,17.27
2016-03-24T09:04:10.602Z,17.26
2016-03-24T09:05:10.667Z,17.24
2016-03-24T09:06:10.702Z,17.24
2016-03-24T09:07:10.750Z,17.19
2016-03-24T09:08:10.832Z,17.3
2016-03-24T09:09:10.849Z,17.23
2016-03-24T09:10:10.899Z,17.26
2016-03-24T09:11:10.980Z,17.31
2016-03-24T09:12:11.014Z,17.27
2016-03-24T09:13:11.079Z,17.3
2016-03-24T09:14:11.098Z,17.26
2016-03-24T09:15:11.179Z,17.27
2016-03-24T09:16:11.228Z,17.29
2016-03-24T09:17:11.246Z,17.31
2016-03-24T09:18:11.296Z,17.27
2016-03-24T09:19:11.392Z,17.29
2016-03-24T09:20:11.410Z,17.31
2016-03-24T09:21:11.460Z,17.34
2016-03-24T09:22:11.526Z,17.27
2016-03-24T09:23:11.590Z,17.33
2016-03-24T09:24:11.609Z,17.38
2016-03-24T09:25:11.690Z,17.34
2016-03-24T09:26:11.723Z,17.36
2016-03-24T09:27:11.789Z,17.33
2016-03-24T09:28:11.823Z,17.38
2016-03-24T09:29:11.873Z,17.38
2016-03-24T09:30:11.953Z,17.38
2016-03-24T09:31:11.987Z,17.31
2016-03-24T09:32:12.021Z,17.38
2016-03-24T09:33:12.086Z,17.38
2016-03-24T09:34:12.136Z,17.38
2016-03-24T09:35:11.997Z,17.36
2016-03-24T09:36:12.078Z,17.36
2016-03-24T09:37:12.300Z,17.41
2016-03-24T09:38:12.319Z,17.36
2016-03-24T09:39:12.399Z,17.41
2016-03-24T09:40:12.449Z,17.41
2016-03-24T09:41:12.499Z,17.39
2016-03-24T09:42:12.548Z,17.38
2016-03-24T09:43:12.566Z,17.42
2016-03-24T09:44:12.632Z,17.39
2016-03-24T09:45:12.697Z,17.36
2016-03-24T09:46:12.715Z,17.39
2016-03-24T09:47:12.780Z,17.42
2016-03-24T09:48:12.861Z,17.39
2016-03-24T09:49:12.879Z,17.39
2016-03-24T09:50:12.929Z,17.38
2016-03-24T09:51:13.009Z,17.34
2016-03-24T09:52:13.043Z,17.36
2016-03-24T09:53:13.078Z,17.31
2016-03-24T09:54:13.158Z,17.31
2016-03-24T09:55:13.193Z,17.38
2016-03-24T09:56:13.226Z,17.39
2016-03-24T09:57:13.306Z,17.29
2016-03-24T09:58:13.357Z,17.39
2016-03-24T09:59:13.234Z,17.41
2016-03-24T10:00:13.455Z,17.39
2016-03-24T10:01:13.521Z,17.38
2016-03-24T10:02:13.539Z,17.38
2016-03-24T10:03:13.589Z,17.38
2016-03-24T10:04:13.654Z,17.38
2016-03-24T10:05:13.719Z,17.38
2016-03-24T10:06:13.769Z,17.39
2016-03-24T10:07:13.631Z,17.39
2016-03-24T10:08:13.852Z,17.31
2016-03-24T10:09:13.916Z,17.36
2016-03-24T10:10:13.936Z,17.36
2016-03-24T10:11:14.001Z,17.31
2016-03-24T10:12:14.082Z,17.31
2016-03-24T10:13:14.100Z,17.39
2016-03-24T10:14:14.150Z,17.31
2016-03-24T10:15:14.215Z,17.31
2016-03-24T10:16:14.265Z,17.3
2016-03-24T10:17:14.329Z,17.38
2016-03-24T10:18:14.363Z,17.31
2016-03-24T10:19:14.413Z,17.38
2016-03-24T10:20:14.479Z,17.34
2016-03-24T10:21:14.512Z,17.36
2016-03-24T10:22:14.562Z,17.34
2016-03-24T10:23:14.627Z,17.38
2016-03-24T10:24:14.662Z,17.34
2016-03-24T10:25:14.710Z,17.36
2016-03-24T10:26:14.775Z,17.36
2016-03-24T10:27:14.825Z,17.34
2016-03-24T10:28:14.859Z,17.29
2016-03-24T10:29:14.940Z,17.39
2016-03-24T10:30:14.958Z,17.33
2016-03-24T10:31:15.040Z,17.34
2016-03-24T10:32:15.073Z,17.31
2016-03-24T10:33:15.107Z,17.36
2016-03-24T10:34:15.188Z,17.33
2016-03-24T10:35:15.237Z,17.42
2016-03-24T10:36:15.272Z,17.38
2016-03-24T10:37:15.352Z,17.36
2016-03-24T10:38:15.401Z,17.33
2016-03-24T10:39:15.436Z,17.38
2016-03-24T10:40:15.500Z,17.36
2016-03-24T10:41:15.566Z,17.33
2016-03-24T10:42:15.584Z,17.34
2016-03-24T10:43:15.650Z,17.33
2016-03-24T10:44:15.683Z,17.31
2016-03-24T10:45:15.763Z,17.38
2016-03-24T10:46:15.813Z,17.38
2016-03-24T10:47:15.832Z,17.38
2016-03-24T10:48:15.896Z,17.36
2016-03-24T10:49:15.962Z,17.36
2016-03-24T10:50:15.965Z,17.38
2016-03-24T10:51:16.030Z,17.39
2016-03-24T10:52:16.111Z,17.36
2016-03-24T10:53:16.129Z,17.33
2016-03-24T10:54:16.179Z,17.31
2016-03-24T10:55:16.260Z,17.39
2016-03-24T10:56:16.293Z,17.39
2016-03-24T10:57:16.359Z,17.39
2016-03-24T10:58:16.378Z,17.38
2016-03-24T10:59:16.442Z,17.31
2016-03-24T11:00:16.508Z,17.31
2016-03-24T11:01:16.541Z,17.38
2016-03-24T11:02:16.576Z,17.38
2016-03-24T11:03:16.673Z,17.36
2016-03-24T11:04:16.690Z,17.34
2016-03-24T11:05:16.772Z,17.36
2016-03-24T11:06:16.805Z,17.41
2016-03-24T11:07:16.870Z,17.38
2016-03-24T11:08:16.905Z,17.38
2016-03-24T11:09:16.938Z,17.39
2016-03-24T11:10:17.002Z,17.36
2016-03-24T11:11:17.083Z,17.38
2016-03-24T11:12:17.102Z,17.34
2016-03-24T11:13:17.168Z,17.34
2016-03-24T11:14:17.233Z,17.36
2016-03-24T11:15:17.282Z,17.33
2016-03-24T11:16:17.301Z,17.38
2016-03-24T11:17:17.381Z,17.36
2016-03-24T11:18:17.432Z,17.38
2016-03-24T11:19:17.449Z,17.31
2016-03-24T11:20:17.577Z,17.33
2016-03-24T11:21:17.548Z,17.33
2016-03-24T11:22:17.629Z,17.34
2016-03-24T11:23:17.679Z,17.36
2016-03-24T11:24:17.728Z,17.38
2016-03-24T11:25:17.779Z,17.36
2016-03-24T11:26:17.843Z,17.38
2016-03-24T11:27:17.861Z,17.34
2016-03-24T11:28:17.943Z,17.34
2016-03-24T11:29:17.992Z,17.33
2016-03-24T11:30:18.025Z,17.36
2016-03-24T11:31:18.076Z,17.39
2016-03-24T11:32:18.140Z,17.31
2016-03-24T11:33:18.175Z,17.39
2016-03-24T11:34:18.225Z,17.39
2016-03-24T11:35:18.289Z,17.38
2016-03-24T11:36:18.323Z,17.33
2016-03-24T11:37:18.357Z,17.34
2016-03-24T11:38:18.438Z,17.36
2016-03-24T11:39:18.488Z,17.34
2016-03-24T11:40:18.522Z,17.31
2016-03-24T11:41:18.602Z,17.38
2016-03-24T11:42:18.652Z,17.31
2016-03-24T11:43:18.686Z,17.38
2016-03-24T11:44:18.751Z,17.39
2016-03-24T11:45:18.816Z,17.39
2016-03-24T11:46:18.835Z,17.38
2016-03-24T11:47:18.899Z,17.34
2016-03-24T11:48:18.934Z,17.38
2016-03-24T11:49:19.061Z,17.36
2016-03-24T11:50:19.142Z,17.39
2016-03-24T11:51:19.066Z,17.34
2016-03-24T11:52:19.147Z,17.41
2016-03-24T11:53:19.212Z,17.38
2016-03-24T11:54:19.231Z,17.31
2016-03-24T11:55:19.281Z,17.38
2016-03-24T11:56:19.377Z,17.44
2016-03-24T11:57:19.395Z,17.36
2016-03-24T11:58:19.445Z,17.41
2016-03-24T11:59:19.510Z,17.31
2016-03-24T12:00:19.559Z,17.38
2016-03-24T12:01:19.625Z,17.34
2016-03-24T12:02:19.643Z,17.36
2016-03-24T12:03:19.709Z,17.36
2016-03-24T12:04:19.773Z,17.31
2016-03-24T12:05:19.854Z,17.39
2016-03-24T12:06:19.841Z,17.38
2016-03-24T12:07:19.906Z,17.27
2016-03-24T12:08:19.956Z,17.38
2016-03-24T12:09:19.989Z,17.38
2016-03-24T12:10:20.150Z,17.42
2016-03-24T12:11:20.120Z,17.38
2016-03-24T12:12:20.169Z,17.44
2016-03-24T12:13:20.204Z,17.38
2016-03-24T12:14:20.253Z,17.44
2016-03-24T12:15:20.350Z,17.34
2016-03-24T12:16:20.352Z,17.39
2016-03-24T12:17:20.231Z,17.41
2016-03-24T12:18:20.468Z,17.38
2016-03-24T12:19:20.532Z,17.42
2016-03-24T12:20:20.566Z,17.41
2016-03-24T12:21:20.646Z,17.33
2016-03-24T12:22:20.681Z,17.41
2016-03-24T12:23:20.699Z,17.42
2016-03-24T12:24:20.779Z,17.44
2016-03-24T12:25:20.799Z,17.45
2016-03-24T12:26:20.895Z,17.46
2016-03-24T12:27:20.929Z,17.39
2016-03-24T12:28:20.947Z,17.34
2016-03-24T12:29:21.029Z,17.33
2016-03-24T12:30:21.093Z,17.45
2016-03-24T12:31:21.112Z,17.42
2016-03-24T12:32:21.176Z,17.48
2016-03-24T12:33:21.242Z,17.44
2016-03-24T12:34:21.261Z,17.41
2016-03-24T12:35:21.372Z,17.42
2016-03-24T12:36:21.391Z,17.39
2016-03-24T12:37:21.425Z,17.45
2016-03-24T12:38:21.490Z,17.44
2016-03-24T12:39:21.539Z,17.39
2016-03-24T12:40:21.589Z,17.45
2016-03-24T12:41:21.639Z,17.42
2016-03-24T12:42:21.672Z,17.41
2016-03-24T12:43:21.738Z,17.51
2016-03-24T12:44:21.802Z,17.46
2016-03-24T12:45:21.822Z,17.44
2016-03-24T12:46:21.855Z,17.51
2016-03-24T12:47:21.951Z,17.45
2016-03-24T12:48:21.985Z,17.49
2016-03-24T12:49:22.019Z,17.48
2016-03-24T12:50:22.225Z,17.51
2016-03-24T12:51:22.134Z,17.54
2016-03-24T12:52:22.199Z,17.48
2016-03-24T12:53:22.233Z,17.49
2016-03-24T12:54:22.283Z,17.42
2016-03-24T12:55:22.363Z,17.48